sensor_id;sensor_type;location;lat;lon;timestamp;P1;durP1;ratioP1;P2;durP2;ratioP2
12228;SDS011;6177;52.402;9.800;2023-06-22T00:02:46;13.23;;;12.40;;
12228;SDS011;6177;52.402;9.800;2023-06-22T00:05:37;14.15;;;13.02;;
12228;SDS011;6177;52.402;9.800;2023-06-22T00:08:28;12.73;;;11.98;;
12228;SDS011;6177;52.402;9.800;2023-06-22T00:11:19;13.90;;;12.77;;
12228;SDS011;6177;52.402;9.800;2023-06-22T00:14:10;13.15;;;12.38;;
12228;SDS011;6177;52.402;9.800;2023-06-22T00:17:01;13.02;;;12.15;;
12228;SDS011;6177;52.402;9.800;2023-06-22T00:19:52;13.65;;;12.82;;
12228;SDS011;6177;52.402;9.800;2023-06-22T00:22:44;13.60;;;12.80;;
12228;SDS011;6177;52.402;9.800;2023-06-22T00:25:36;12.93;;;12.15;;
12228;SDS011;6177;52.402;9.800;2023-06-22T00:28:32;13.15;;;12.38;;
12228;SDS011;6177;52.402;9.800;2023-06-22T00:31:23;13.32;;;12.48;;
12228;SDS011;6177;52.402;9.800;2023-06-22T00:34:14;12.70;;;11.95;;
12228;SDS011;6177;52.402;9.800;2023-06-22T00:37:06;12.35;;;11.65;;
12228;SDS011;6177;52.402;9.800;2023-06-22T00:39:57;12.80;;;12.10;;
12228;SDS011;6177;52.402;9.800;2023-06-22T00:42:49;11.82;;;11.13;;
12228;SDS011;6177;52.402;9.800;2023-06-22T00:45:39;12.75;;;12.05;;
12228;SDS011;6177;52.402;9.800;2023-06-22T00:48:30;12.18;;;11.32;;
12228;SDS011;6177;52.402;9.800;2023-06-22T00:51:21;13.45;;;12.55;;
12228;SDS011;6177;52.402;9.800;2023-06-22T00:54:14;12.50;;;11.80;;
12228;SDS011;6177;52.402;9.800;2023-06-22T00:57:05;12.30;;;11.50;;
12228;SDS011;6177;52.402;9.800;2023-06-22T01:00:02;12.38;;;11.68;;
12228;SDS011;6177;52.402;9.800;2023-06-22T01:03:03;12.43;;;11.60;;
12228;SDS011;6177;52.402;9.800;2023-06-22T01:05:55;13.02;;;12.23;;
12228;SDS011;6177;52.402;9.800;2023-06-22T01:08:57;13.48;;;12.55;;
12228;SDS011;6177;52.402;9.800;2023-06-22T01:11:54;12.88;;;11.93;;
12228;SDS011;6177;52.402;9.800;2023-06-22T01:14:54;13.93;;;13.02;;
12228;SDS011;6177;52.402;9.800;2023-06-22T01:17:47;13.05;;;12.07;;
12228;SDS011;6177;52.402;9.800;2023-06-22T01:20:38;13.88;;;12.98;;
12228;SDS011;6177;52.402;9.800;2023-06-22T01:30:00;12.38;;;11.48;;
12228;SDS011;6177;52.402;9.800;2023-06-22T01:32:53;12.25;;;11.55;;
12228;SDS011;6177;52.402;9.800;2023-06-22T01:35:45;11.80;;;11.20;;
12228;SDS011;6177;52.402;9.800;2023-06-22T01:38:36;12.15;;;11.45;;
12228;SDS011;6177;52.402;9.800;2023-06-22T01:41:28;13.25;;;12.25;;
12228;SDS011;6177;52.402;9.800;2023-06-22T01:44:20;12.63;;;11.63;;
12228;SDS011;6177;52.402;9.800;2023-06-22T01:47:12;12.18;;;11.48;;
12228;SDS011;6177;52.402;9.800;2023-06-22T01:50:04;11.85;;;11.15;;
12228;SDS011;6177;52.402;9.800;2023-06-22T01:52:57;11.25;;;10.57;;
12228;SDS011;6177;52.402;9.800;2023-06-22T01:55:50;11.60;;;10.90;;
12228;SDS011;6177;52.402;9.800;2023-06-22T01:58:43;12.13;;;11.43;;
12228;SDS011;6177;52.402;9.800;2023-06-22T02:02:02;11.70;;;11.00;;
12228;SDS011;6177;52.402;9.800;2023-06-22T02:05:08;13.10;;;12.30;;
12228;SDS011;6177;52.402;9.800;2023-06-22T02:08:07;11.60;;;10.93;;
12228;SDS011;6177;52.402;9.800;2023-06-22T02:11:01;11.90;;;11.10;;
12228;SDS011;6177;52.402;9.800;2023-06-22T02:13:53;12.70;;;11.90;;
12228;SDS011;6177;52.402;9.800;2023-06-22T02:16:44;11.70;;;10.90;;
12228;SDS011;6177;52.402;9.800;2023-06-22T02:19:38;11.70;;;11.00;;
12228;SDS011;6177;52.402;9.800;2023-06-22T02:22:31;11.90;;;11.27;;
12228;SDS011;6177;52.402;9.800;2023-06-22T02:25:22;12.00;;;11.30;;
12228;SDS011;6177;52.402;9.800;2023-06-22T02:28:12;10.45;;;9.95;;
12228;SDS011;6177;52.402;9.800;2023-06-22T02:31:03;11.82;;;11.13;;
12228;SDS011;6177;52.402;9.800;2023-06-22T02:33:54;11.63;;;10.93;;
12228;SDS011;6177;52.402;9.800;2023-06-22T02:36:45;11.48;;;10.88;;
12228;SDS011;6177;52.402;9.800;2023-06-22T02:39:41;11.68;;;10.98;;
12228;SDS011;6177;52.402;9.800;2023-06-22T02:42:32;11.65;;;10.95;;
12228;SDS011;6177;52.402;9.800;2023-06-22T02:45:23;11.38;;;10.68;;
12228;SDS011;6177;52.402;9.800;2023-06-22T02:48:15;11.80;;;10.85;;
12228;SDS011;6177;52.402;9.800;2023-06-22T02:51:06;12.63;;;11.65;;
12228;SDS011;6177;52.402;9.800;2023-06-22T02:53:58;12.13;;;11.43;;
12228;SDS011;6177;52.402;9.800;2023-06-22T02:56:50;12.95;;;12.05;;
12228;SDS011;6177;52.402;9.800;2023-06-22T02:59:42;12.63;;;11.82;;
12228;SDS011;6177;52.402;9.800;2023-06-22T03:02:34;11.80;;;11.10;;
12228;SDS011;6177;52.402;9.800;2023-06-22T03:05:25;13.10;;;12.05;;
12228;SDS011;6177;52.402;9.800;2023-06-22T03:08:17;11.77;;;10.98;;
12228;SDS011;6177;52.402;9.800;2023-06-22T03:11:08;12.20;;;11.50;;
12228;SDS011;6177;52.402;9.800;2023-06-22T03:13:59;11.90;;;11.10;;
12228;SDS011;6177;52.402;9.800;2023-06-22T03:16:51;12.57;;;11.77;;
12228;SDS011;6177;52.402;9.800;2023-06-22T03:19:43;12.25;;;11.55;;
12228;SDS011;6177;52.402;9.800;2023-06-22T03:22:35;12.88;;;11.95;;
12228;SDS011;6177;52.402;9.800;2023-06-22T03:25:26;11.95;;;11.25;;
12228;SDS011;6177;52.402;9.800;2023-06-22T03:28:18;11.75;;;11.05;;
12228;SDS011;6177;52.402;9.800;2023-06-22T03:31:09;12.23;;;11.43;;
12228;SDS011;6177;52.402;9.800;2023-06-22T03:34:02;11.52;;;10.82;;
12228;SDS011;6177;52.402;9.800;2023-06-22T03:36:52;10.48;;;9.98;;
12228;SDS011;6177;52.402;9.800;2023-06-22T03:39:43;11.55;;;10.77;;
12228;SDS011;6177;52.402;9.800;2023-06-22T03:42:34;11.52;;;10.82;;
12228;SDS011;6177;52.402;9.800;2023-06-22T03:45:28;11.10;;;10.23;;
12228;SDS011;6177;52.402;9.800;2023-06-22T03:48:19;11.15;;;10.45;;
12228;SDS011;6177;52.402;9.800;2023-06-22T03:51:10;11.27;;;10.57;;
12228;SDS011;6177;52.402;9.800;2023-06-22T03:54:01;11.23;;;10.23;;
12228;SDS011;6177;52.402;9.800;2023-06-22T03:56:52;11.23;;;10.63;;
12228;SDS011;6177;52.402;9.800;2023-06-22T03:59:43;10.82;;;10.00;;
12228;SDS011;6177;52.402;9.800;2023-06-22T04:02:34;11.15;;;10.23;;
12228;SDS011;6177;52.402;9.800;2023-06-22T04:05:25;10.30;;;9.57;;
12228;SDS011;6177;52.402;9.800;2023-06-22T04:08:16;10.77;;;10.18;;
12228;SDS011;6177;52.402;9.800;2023-06-22T04:11:08;9.93;;;9.32;;
12228;SDS011;6177;52.402;9.800;2023-06-22T04:13:59;10.45;;;9.75;;
12228;SDS011;6177;52.402;9.800;2023-06-22T04:16:51;10.60;;;9.98;;
12228;SDS011;6177;52.402;9.800;2023-06-22T04:19:42;10.73;;;10.13;;
12228;SDS011;6177;52.402;9.800;2023-06-22T04:22:33;12.23;;;11.38;;
12228;SDS011;6177;52.402;9.800;2023-06-22T04:25:24;11.80;;;11.00;;
12228;SDS011;6177;52.402;9.800;2023-06-22T04:28:15;11.93;;;11.13;;
12228;SDS011;6177;52.402;9.800;2023-06-22T04:31:06;11.90;;;10.90;;
12228;SDS011;6177;52.402;9.800;2023-06-22T04:33:57;11.98;;;11.15;;
12228;SDS011;6177;52.402;9.800;2023-06-22T04:36:55;11.15;;;10.43;;
12228;SDS011;6177;52.402;9.800;2023-06-22T04:39:46;12.57;;;11.50;;
12228;SDS011;6177;52.402;9.800;2023-06-22T04:42:38;11.10;;;10.30;;
12228;SDS011;6177;52.402;9.800;2023-06-22T04:45:29;10.93;;;10.10;;
12228;SDS011;6177;52.402;9.800;2023-06-22T04:48:20;11.23;;;10.32;;
12228;SDS011;6177;52.402;9.800;2023-06-22T04:51:11;12.07;;;10.85;;
12228;SDS011;6177;52.402;9.800;2023-06-22T04:54:02;11.65;;;10.60;;
12228;SDS011;6177;52.402;9.800;2023-06-22T04:56:56;11.43;;;10.55;;
12228;SDS011;6177;52.402;9.800;2023-06-22T04:59:47;10.95;;;10.00;;
12228;SDS011;6177;52.402;9.800;2023-06-22T05:02:38;11.65;;;10.70;;
12228;SDS011;6177;52.402;9.800;2023-06-22T05:05:29;12.02;;;10.02;;
12228;SDS011;6177;52.402;9.800;2023-06-22T05:08:20;10.20;;;9.40;;
12228;SDS011;6177;52.402;9.800;2023-06-22T05:11:11;9.60;;;9.00;;
12228;SDS011;6177;52.402;9.800;2023-06-22T05:14:02;9.20;;;8.48;;
12228;SDS011;6177;52.402;9.800;2023-06-22T05:16:53;9.65;;;8.85;;
12228;SDS011;6177;52.402;9.800;2023-06-22T05:19:44;9.00;;;8.35;;
12228;SDS011;6177;52.402;9.800;2023-06-22T05:22:39;9.02;;;8.48;;
12228;SDS011;6177;52.402;9.800;2023-06-22T05:25:30;9.15;;;8.40;;
12228;SDS011;6177;52.402;9.800;2023-06-22T05:28:22;9.43;;;8.73;;
12228;SDS011;6177;52.402;9.800;2023-06-22T05:31:14;8.32;;;7.82;;
12228;SDS011;6177;52.402;9.800;2023-06-22T05:34:05;7.97;;;7.47;;
12228;SDS011;6177;52.402;9.800;2023-06-22T05:36:56;7.25;;;6.85;;
12228;SDS011;6177;52.402;9.800;2023-06-22T05:39:49;7.70;;;7.30;;
12228;SDS011;6177;52.402;9.800;2023-06-22T05:42:40;7.03;;;6.70;;
12228;SDS011;6177;52.402;9.800;2023-06-22T05:45:31;7.32;;;6.85;;
12228;SDS011;6177;52.402;9.800;2023-06-22T05:48:22;7.50;;;6.95;;
12228;SDS011;6177;52.402;9.800;2023-06-22T05:51:13;7.18;;;6.63;;
12228;SDS011;6177;52.402;9.800;2023-06-22T05:54:03;7.00;;;6.60;;
12228;SDS011;6177;52.402;9.800;2023-06-22T05:56:54;7.60;;;7.10;;
12228;SDS011;6177;52.402;9.800;2023-06-22T05:59:45;7.07;;;6.65;;
12228;SDS011;6177;52.402;9.800;2023-06-22T06:02:36;6.63;;;6.13;;
12228;SDS011;6177;52.402;9.800;2023-06-22T06:05:27;6.55;;;6.00;;
12228;SDS011;6177;52.402;9.800;2023-06-22T06:08:18;7.10;;;6.45;;
12228;SDS011;6177;52.402;9.800;2023-06-22T06:11:09;6.35;;;5.80;;
12228;SDS011;6177;52.402;9.800;2023-06-22T06:14:00;7.13;;;6.82;;
12228;SDS011;6177;52.402;9.800;2023-06-22T06:16:51;6.97;;;6.47;;
12228;SDS011;6177;52.402;9.800;2023-06-22T06:19:42;6.70;;;6.30;;
12228;SDS011;6177;52.402;9.800;2023-06-22T06:22:33;6.90;;;6.50;;
12228;SDS011;6177;52.402;9.800;2023-06-22T06:25:24;7.32;;;6.85;;
12228;SDS011;6177;52.402;9.800;2023-06-22T06:28:15;6.30;;;5.97;;
12228;SDS011;6177;52.402;9.800;2023-06-22T06:31:06;6.40;;;5.85;;
12228;SDS011;6177;52.402;9.800;2023-06-22T06:33:57;5.97;;;5.68;;
12228;SDS011;6177;52.402;9.800;2023-06-22T06:36:48;5.85;;;5.38;;
12228;SDS011;6177;52.402;9.800;2023-06-22T06:39:39;6.03;;;5.68;;
12228;SDS011;6177;52.402;9.800;2023-06-22T06:42:30;7.32;;;6.40;;
12228;SDS011;6177;52.402;9.800;2023-06-22T06:45:21;6.20;;;5.90;;
12228;SDS011;6177;52.402;9.800;2023-06-22T06:48:13;5.97;;;5.47;;
12228;SDS011;6177;52.402;9.800;2023-06-22T06:51:04;5.90;;;5.63;;
12228;SDS011;6177;52.402;9.800;2023-06-22T06:53:55;6.28;;;4.72;;
12228;SDS011;6177;52.402;9.800;2023-06-22T06:56:46;6.05;;;5.55;;
12228;SDS011;6177;52.402;9.800;2023-06-22T06:59:38;5.50;;;5.13;;
12228;SDS011;6177;52.402;9.800;2023-06-22T07:02:29;6.40;;;5.93;;
12228;SDS011;6177;52.402;9.800;2023-06-22T07:05:20;5.35;;;5.05;;
12228;SDS011;6177;52.402;9.800;2023-06-22T07:08:11;5.70;;;5.32;;
12228;SDS011;6177;52.402;9.800;2023-06-22T07:11:02;6.28;;;5.88;;
12228;SDS011;6177;52.402;9.800;2023-06-22T07:13:53;5.75;;;5.38;;
12228;SDS011;6177;52.402;9.800;2023-06-22T07:16:44;5.72;;;5.43;;
12228;SDS011;6177;52.402;9.800;2023-06-22T07:19:35;6.38;;;5.80;;
12228;SDS011;6177;52.402;9.800;2023-06-22T07:22:26;5.60;;;5.32;;
12228;SDS011;6177;52.402;9.800;2023-06-22T07:25:17;6.20;;;5.70;;
12228;SDS011;6177;52.402;9.800;2023-06-22T07:28:08;5.78;;;5.38;;
12228;SDS011;6177;52.402;9.800;2023-06-22T07:30:59;5.30;;;4.28;;
12228;SDS011;6177;52.402;9.800;2023-06-22T07:33:50;4.97;;;4.50;;
12228;SDS011;6177;52.402;9.800;2023-06-22T07:36:41;6.32;;;5.47;;
12228;SDS011;6177;52.402;9.800;2023-06-22T07:39:32;5.57;;;5.18;;
12228;SDS011;6177;52.402;9.800;2023-06-22T07:42:24;10.63;;;6.93;;
12228;SDS011;6177;52.402;9.800;2023-06-22T07:45:17;6.18;;;5.60;;
12228;SDS011;6177;52.402;9.800;2023-06-22T07:48:08;6.10;;;5.40;;
12228;SDS011;6177;52.402;9.800;2023-06-22T07:50:59;7.03;;;5.50;;
12228;SDS011;6177;52.402;9.800;2023-06-22T07:53:50;5.47;;;5.03;;
12228;SDS011;6177;52.402;9.800;2023-06-22T07:56:41;8.43;;;5.47;;
12228;SDS011;6177;52.402;9.800;2023-06-22T07:59:32;9.10;;;5.57;;
12228;SDS011;6177;52.402;9.800;2023-06-22T08:02:23;5.75;;;5.20;;
12228;SDS011;6177;52.402;9.800;2023-06-22T08:05:14;7.70;;;5.25;;
12228;SDS011;6177;52.402;9.800;2023-06-22T08:08:06;14.00;;;5.65;;
12228;SDS011;6177;52.402;9.800;2023-06-22T08:10:57;5.93;;;5.53;;
12228;SDS011;6177;52.402;9.800;2023-06-22T08:13:48;6.00;;;5.57;;
12228;SDS011;6177;52.402;9.800;2023-06-22T08:16:40;9.18;;;5.22;;
12228;SDS011;6177;52.402;9.800;2023-06-22T08:19:31;6.15;;;5.70;;
12228;SDS011;6177;52.402;9.800;2023-06-22T08:22:22;5.45;;;4.95;;
12228;SDS011;6177;52.402;9.800;2023-06-22T08:25:13;5.57;;;5.18;;
12228;SDS011;6177;52.402;9.800;2023-06-22T08:28:04;5.72;;;5.32;;
12228;SDS011;6177;52.402;9.800;2023-06-22T08:30:55;6.88;;;6.00;;
12228;SDS011;6177;52.402;9.800;2023-06-22T08:33:46;6.13;;;5.75;;
12228;SDS011;6177;52.402;9.800;2023-06-22T08:36:37;6.70;;;6.20;;
12228;SDS011;6177;52.402;9.800;2023-06-22T08:39:31;6.07;;;5.55;;
12228;SDS011;6177;52.402;9.800;2023-06-22T08:42:22;6.72;;;6.22;;
12228;SDS011;6177;52.402;9.800;2023-06-22T08:45:14;7.85;;;7.20;;
12228;SDS011;6177;52.402;9.800;2023-06-22T08:48:05;6.65;;;6.22;;
12228;SDS011;6177;52.402;9.800;2023-06-22T08:50:56;8.18;;;7.03;;
12228;SDS011;6177;52.402;9.800;2023-06-22T08:53:47;7.40;;;6.80;;
12228;SDS011;6177;52.402;9.800;2023-06-22T08:56:38;7.03;;;6.43;;
12228;SDS011;6177;52.402;9.800;2023-06-22T08:59:29;7.80;;;7.40;;
12228;SDS011;6177;52.402;9.800;2023-06-22T09:02:20;6.75;;;6.35;;
12228;SDS011;6177;52.402;9.800;2023-06-22T09:05:11;7.45;;;6.93;;
12228;SDS011;6177;52.402;9.800;2023-06-22T09:08:02;7.43;;;6.90;;
12228;SDS011;6177;52.402;9.800;2023-06-22T09:10:53;7.30;;;6.68;;
12228;SDS011;6177;52.402;9.800;2023-06-22T09:13:43;6.82;;;6.30;;
12228;SDS011;6177;52.402;9.800;2023-06-22T09:16:34;7.93;;;7.28;;
12228;SDS011;6177;52.402;9.800;2023-06-22T09:19:25;7.97;;;7.38;;
12228;SDS011;6177;52.402;9.800;2023-06-22T09:22:16;7.68;;;7.10;;
12228;SDS011;6177;52.402;9.800;2023-06-22T09:25:07;9.40;;;8.73;;
12228;SDS011;6177;52.402;9.800;2023-06-22T09:27:58;8.50;;;8.02;;
12228;SDS011;6177;52.402;9.800;2023-06-22T09:30:49;9.35;;;8.65;;
12228;SDS011;6177;52.402;9.800;2023-06-22T09:33:40;9.52;;;8.73;;
12228;SDS011;6177;52.402;9.800;2023-06-22T09:36:31;10.00;;;9.30;;
12228;SDS011;6177;52.402;9.800;2023-06-22T09:39:22;9.73;;;8.77;;
12228;SDS011;6177;52.402;9.800;2023-06-22T09:42:13;9.05;;;8.45;;
12228;SDS011;6177;52.402;9.800;2023-06-22T09:45:05;10.50;;;9.32;;
12228;SDS011;6177;52.402;9.800;2023-06-22T09:47:56;9.63;;;8.98;;
12228;SDS011;6177;52.402;9.800;2023-06-22T09:50:47;8.77;;;8.15;;
12228;SDS011;6177;52.402;9.800;2023-06-22T09:53:38;10.32;;;9.55;;
12228;SDS011;6177;52.402;9.800;2023-06-22T09:56:29;8.70;;;8.10;;
12228;SDS011;6177;52.402;9.800;2023-06-22T09:59:20;9.55;;;8.82;;
12228;SDS011;6177;52.402;9.800;2023-06-22T10:02:11;11.20;;;9.98;;
12228;SDS011;6177;52.402;9.800;2023-06-22T10:05:02;11.35;;;9.90;;
12228;SDS011;6177;52.402;9.800;2023-06-22T10:07:53;10.90;;;10.13;;
12228;SDS011;6177;52.402;9.800;2023-06-22T10:10:44;10.15;;;9.48;;
12228;SDS011;6177;52.402;9.800;2023-06-22T10:13:35;12.02;;;10.15;;
12228;SDS011;6177;52.402;9.800;2023-06-22T10:16:32;11.38;;;10.55;;
12228;SDS011;6177;52.402;9.800;2023-06-22T10:19:23;12.38;;;11.57;;
12228;SDS011;6177;52.402;9.800;2023-06-22T10:22:14;11.95;;;10.93;;
12228;SDS011;6177;52.402;9.800;2023-06-22T10:25:05;11.02;;;10.23;;
12228;SDS011;6177;52.402;9.800;2023-06-22T10:27:56;10.93;;;10.23;;
12228;SDS011;6177;52.402;9.800;2023-06-22T10:30:47;10.95;;;10.32;;
12228;SDS011;6177;52.402;9.800;2023-06-22T10:33:38;10.93;;;10.23;;
12228;SDS011;6177;52.402;9.800;2023-06-22T10:36:31;11.50;;;10.50;;
12228;SDS011;6177;52.402;9.800;2023-06-22T10:39:22;11.27;;;10.15;;
12228;SDS011;6177;52.402;9.800;2023-06-22T10:42:14;10.27;;;9.57;;
12228;SDS011;6177;52.402;9.800;2023-06-22T10:45:04;11.43;;;10.65;;
12228;SDS011;6177;52.402;9.800;2023-06-22T10:47:55;11.23;;;10.48;;
12228;SDS011;6177;52.402;9.800;2023-06-22T10:50:46;10.75;;;10.05;;
12228;SDS011;6177;52.402;9.800;2023-06-22T10:53:37;9.40;;;8.57;;
12228;SDS011;6177;52.402;9.800;2023-06-22T10:56:28;11.93;;;10.98;;
12228;SDS011;6177;52.402;9.800;2023-06-22T10:59:19;12.52;;;11.50;;
12228;SDS011;6177;52.402;9.800;2023-06-22T11:02:11;12.00;;;11.07;;
12228;SDS011;6177;52.402;9.800;2023-06-22T11:05:02;13.20;;;11.27;;
12228;SDS011;6177;52.402;9.800;2023-06-22T11:07:53;11.05;;;10.35;;
12228;SDS011;6177;52.402;9.800;2023-06-22T11:10:44;11.20;;;10.50;;
12228;SDS011;6177;52.402;9.800;2023-06-22T11:13:35;10.02;;;9.43;;
12228;SDS011;6177;52.402;9.800;2023-06-22T11:16:27;11.73;;;10.75;;
12228;SDS011;6177;52.402;9.800;2023-06-22T11:19:18;11.38;;;10.40;;
12228;SDS011;6177;52.402;9.800;2023-06-22T11:22:09;11.38;;;10.68;;
12228;SDS011;6177;52.402;9.800;2023-06-22T11:25:00;10.45;;;9.65;;
12228;SDS011;6177;52.402;9.800;2023-06-22T11:27:51;11.35;;;10.55;;
12228;SDS011;6177;52.402;9.800;2023-06-22T11:30:44;10.13;;;9.52;;
12228;SDS011;6177;52.402;9.800;2023-06-22T11:33:35;10.10;;;9.38;;
12228;SDS011;6177;52.402;9.800;2023-06-22T11:36:26;10.32;;;9.23;;
12228;SDS011;6177;52.402;9.800;2023-06-22T11:39:17;10.23;;;9.50;;
12228;SDS011;6177;52.402;9.800;2023-06-22T11:42:07;10.40;;;9.45;;
12228;SDS011;6177;52.402;9.800;2023-06-22T11:44:59;9.50;;;8.90;;
12228;SDS011;6177;52.402;9.800;2023-06-22T11:47:50;10.48;;;9.73;;
12228;SDS011;6177;52.402;9.800;2023-06-22T11:50:41;9.95;;;9.35;;
12228;SDS011;6177;52.402;9.800;2023-06-22T11:53:32;9.98;;;9.48;;
12228;SDS011;6177;52.402;9.800;2023-06-22T11:56:24;9.63;;;8.82;;
12228;SDS011;6177;52.402;9.800;2023-06-22T11:59:15;10.43;;;9.40;;
12228;SDS011;6177;52.402;9.800;2023-06-22T12:02:06;10.48;;;9.70;;
12228;SDS011;6177;52.402;9.800;2023-06-22T12:04:57;10.13;;;9.38;;
12228;SDS011;6177;52.402;9.800;2023-06-22T12:07:48;9.40;;;8.80;;
12228;SDS011;6177;52.402;9.800;2023-06-22T12:10:39;9.95;;;9.43;;
12228;SDS011;6177;52.402;9.800;2023-06-22T12:13:30;11.18;;;10.20;;
12228;SDS011;6177;52.402;9.800;2023-06-22T12:16:21;11.25;;;10.55;;
12228;SDS011;6177;52.402;9.800;2023-06-22T12:19:12;10.75;;;9.88;;
12228;SDS011;6177;52.402;9.800;2023-06-22T12:22:03;10.25;;;9.38;;
12228;SDS011;6177;52.402;9.800;2023-06-22T12:24:54;9.65;;;8.90;;
12228;SDS011;6177;52.402;9.800;2023-06-22T12:27:45;10.05;;;9.48;;
12228;SDS011;6177;52.402;9.800;2023-06-22T12:30:36;9.30;;;8.88;;
12228;SDS011;6177;52.402;9.800;2023-06-22T12:33:27;10.05;;;9.18;;
12228;SDS011;6177;52.402;9.800;2023-06-22T12:36:18;9.68;;;8.80;;
12228;SDS011;6177;52.402;9.800;2023-06-22T12:39:09;8.98;;;8.45;;
12228;SDS011;6177;52.402;9.800;2023-06-22T12:42:00;9.80;;;8.82;;
12228;SDS011;6177;52.402;9.800;2023-06-22T12:44:51;10.02;;;9.07;;
12228;SDS011;6177;52.402;9.800;2023-06-22T12:47:42;9.55;;;8.88;;
12228;SDS011;6177;52.402;9.800;2023-06-22T12:50:33;10.57;;;9.88;;
12228;SDS011;6177;52.402;9.800;2023-06-22T12:53:24;10.35;;;9.60;;
12228;SDS011;6177;52.402;9.800;2023-06-22T12:56:17;9.50;;;8.90;;
12228;SDS011;6177;52.402;9.800;2023-06-22T12:59:08;9.75;;;9.15;;
12228;SDS011;6177;52.402;9.800;2023-06-22T13:01:59;8.95;;;8.32;;
12228;SDS011;6177;52.402;9.800;2023-06-22T13:04:50;9.07;;;8.32;;
12228;SDS011;6177;52.402;9.800;2023-06-22T13:07:41;9.40;;;8.75;;
12228;SDS011;6177;52.402;9.800;2023-06-22T13:10:32;8.93;;;8.32;;
12228;SDS011;6177;52.402;9.800;2023-06-22T13:13:23;9.55;;;9.00;;
12228;SDS011;6177;52.402;9.800;2023-06-22T13:16:15;8.27;;;7.78;;
12228;SDS011;6177;52.402;9.800;2023-06-22T13:19:06;8.80;;;8.10;;
12228;SDS011;6177;52.402;9.800;2023-06-22T13:21:57;8.65;;;8.20;;
12228;SDS011;6177;52.402;9.800;2023-06-22T13:24:49;9.23;;;8.60;;
12228;SDS011;6177;52.402;9.800;2023-06-22T13:27:40;9.60;;;9.02;;
12228;SDS011;6177;52.402;9.800;2023-06-22T13:30:31;8.95;;;8.45;;
12228;SDS011;6177;52.402;9.800;2023-06-22T13:33:22;10.05;;;9.38;;
12228;SDS011;6177;52.402;9.800;2023-06-22T13:36:13;10.55;;;9.68;;
12228;SDS011;6177;52.402;9.800;2023-06-22T13:39:04;11.48;;;10.82;;
12228;SDS011;6177;52.402;9.800;2023-06-22T13:41:55;10.48;;;9.98;;
12228;SDS011;6177;52.402;9.800;2023-06-22T13:44:46;12.05;;;11.25;;
12228;SDS011;6177;52.402;9.800;2023-06-22T13:47:37;12.25;;;11.45;;
12228;SDS011;6177;52.402;9.800;2023-06-22T13:50:28;12.55;;;11.55;;
12228;SDS011;6177;52.402;9.800;2023-06-22T13:53:20;12.02;;;11.13;;
12228;SDS011;6177;52.402;9.800;2023-06-22T13:56:11;11.88;;;10.98;;
12228;SDS011;6177;52.402;9.800;2023-06-22T13:59:02;11.98;;;11.07;;
12228;SDS011;6177;52.402;9.800;2023-06-22T14:01:53;12.15;;;11.35;;
12228;SDS011;6177;52.402;9.800;2023-06-22T14:04:44;12.38;;;11.52;;
12228;SDS011;6177;52.402;9.800;2023-06-22T14:07:35;11.38;;;10.68;;
12228;SDS011;6177;52.402;9.800;2023-06-22T14:10:28;11.52;;;10.82;;
12228;SDS011;6177;52.402;9.800;2023-06-22T14:13:18;12.68;;;11.73;;
12228;SDS011;6177;52.402;9.800;2023-06-22T14:16:09;12.25;;;11.45;;
12228;SDS011;6177;52.402;9.800;2023-06-22T14:19:00;11.98;;;11.18;;
12228;SDS011;6177;52.402;9.800;2023-06-22T14:21:51;12.32;;;11.50;;
12228;SDS011;6177;52.402;9.800;2023-06-22T14:24:42;12.43;;;11.38;;
12228;SDS011;6177;52.402;9.800;2023-06-22T14:27:33;13.65;;;12.80;;
12228;SDS011;6177;52.402;9.800;2023-06-22T14:30:24;14.55;;;13.45;;
12228;SDS011;6177;52.402;9.800;2023-06-22T14:33:15;12.50;;;11.75;;
12228;SDS011;6177;52.402;9.800;2023-06-22T14:36:06;12.48;;;11.65;;
12228;SDS011;6177;52.402;9.800;2023-06-22T14:38:57;12.35;;;11.38;;
12228;SDS011;6177;52.402;9.800;2023-06-22T14:41:48;11.55;;;10.85;;
12228;SDS011;6177;52.402;9.800;2023-06-22T14:44:39;11.38;;;10.63;;
12228;SDS011;6177;52.402;9.800;2023-06-22T14:47:30;12.20;;;11.50;;
12228;SDS011;6177;52.402;9.800;2023-06-22T14:50:21;10.65;;;10.05;;
12228;SDS011;6177;52.402;9.800;2023-06-22T14:53:12;11.45;;;10.73;;
12228;SDS011;6177;52.402;9.800;2023-06-22T14:56:04;10.68;;;10.07;;
12228;SDS011;6177;52.402;9.800;2023-06-22T14:58:55;10.52;;;9.98;;
12228;SDS011;6177;52.402;9.800;2023-06-22T15:01:46;11.70;;;10.85;;
12228;SDS011;6177;52.402;9.800;2023-06-22T15:04:37;11.15;;;10.55;;
12228;SDS011;6177;52.402;9.800;2023-06-22T15:07:28;10.50;;;10.00;;
12228;SDS011;6177;52.402;9.800;2023-06-22T15:10:19;11.38;;;10.77;;
12228;SDS011;6177;52.402;9.800;2023-06-22T15:13:10;11.57;;;10.77;;
12228;SDS011;6177;52.402;9.800;2023-06-22T15:16:02;12.57;;;11.65;;
12228;SDS011;6177;52.402;9.800;2023-06-22T15:18:55;12.68;;;11.63;;
12228;SDS011;6177;52.402;9.800;2023-06-22T15:21:46;10.70;;;10.00;;
12228;SDS011;6177;52.402;9.800;2023-06-22T15:24:37;11.43;;;10.73;;
12228;SDS011;6177;52.402;9.800;2023-06-22T15:27:28;12.82;;;11.80;;
12228;SDS011;6177;52.402;9.800;2023-06-22T15:30:19;16.50;;;14.98;;
12228;SDS011;6177;52.402;9.800;2023-06-22T15:33:11;18.80;;;16.80;;
12228;SDS011;6177;52.402;9.800;2023-06-22T15:36:01;19.55;;;17.65;;
12228;SDS011;6177;52.402;9.800;2023-06-22T15:38:53;17.55;;;15.95;;
12228;SDS011;6177;52.402;9.800;2023-06-22T15:41:44;18.17;;;16.50;;
12228;SDS011;6177;52.402;9.800;2023-06-22T15:44:35;17.25;;;15.95;;
12228;SDS011;6177;52.402;9.800;2023-06-22T15:47:26;17.80;;;16.20;;
12228;SDS011;6177;52.402;9.800;2023-06-22T15:50:18;17.20;;;15.70;;
12228;SDS011;6177;52.402;9.800;2023-06-22T15:53:08;15.55;;;14.30;;
12228;SDS011;6177;52.402;9.800;2023-06-22T15:55:59;15.32;;;14.25;;
12228;SDS011;6177;52.402;9.800;2023-06-22T15:58:50;16.80;;;15.32;;
12228;SDS011;6177;52.402;9.800;2023-06-22T16:01:42;15.57;;;14.35;;
12228;SDS011;6177;52.402;9.800;2023-06-22T16:04:32;17.35;;;16.08;;
12228;SDS011;6177;52.402;9.800;2023-06-22T16:07:23;16.33;;;14.80;;
12228;SDS011;6177;52.402;9.800;2023-06-22T16:10:14;16.88;;;15.57;;
12228;SDS011;6177;52.402;9.800;2023-06-22T16:13:06;15.75;;;14.45;;
12228;SDS011;6177;52.402;9.800;2023-06-22T16:15:57;16.55;;;15.27;;
12228;SDS011;6177;52.402;9.800;2023-06-22T16:18:48;15.95;;;14.75;;
12228;SDS011;6177;52.402;9.800;2023-06-22T16:21:39;17.25;;;16.05;;
12228;SDS011;6177;52.402;9.800;2023-06-22T16:24:30;16.75;;;15.45;;
12228;SDS011;6177;52.402;9.800;2023-06-22T16:27:21;16.98;;;15.77;;
12228;SDS011;6177;52.402;9.800;2023-06-22T16:30:13;17.90;;;16.60;;
12228;SDS011;6177;52.402;9.800;2023-06-22T16:33:04;17.38;;;16.10;;
12228;SDS011;6177;52.402;9.800;2023-06-22T16:35:54;19.08;;;17.33;;
12228;SDS011;6177;52.402;9.800;2023-06-22T16:38:45;17.83;;;16.15;;
12228;SDS011;6177;52.402;9.800;2023-06-22T16:41:36;16.15;;;14.95;;
12228;SDS011;6177;52.402;9.800;2023-06-22T16:44:27;15.95;;;14.82;;
12228;SDS011;6177;52.402;9.800;2023-06-22T16:47:18;15.93;;;14.82;;
12228;SDS011;6177;52.402;9.800;2023-06-22T16:50:09;14.75;;;13.63;;
12228;SDS011;6177;52.402;9.800;2023-06-22T16:53:00;15.32;;;14.23;;
12228;SDS011;6177;52.402;9.800;2023-06-22T16:55:52;14.43;;;13.32;;
12228;SDS011;6177;52.402;9.800;2023-06-22T16:58:42;13.65;;;12.63;;
12228;SDS011;6177;52.402;9.800;2023-06-22T17:01:33;12.90;;;12.10;;
12228;SDS011;6177;52.402;9.800;2023-06-22T17:04:25;15.30;;;14.15;;
12228;SDS011;6177;52.402;9.800;2023-06-22T17:07:17;13.65;;;12.75;;
12228;SDS011;6177;52.402;9.800;2023-06-22T17:10:09;14.00;;;13.00;;
12228;SDS011;6177;52.402;9.800;2023-06-22T17:13:02;13.02;;;12.10;;
12228;SDS011;6177;52.402;9.800;2023-06-22T17:15:55;13.27;;;12.38;;
12228;SDS011;6177;52.402;9.800;2023-06-22T17:18:46;13.70;;;12.82;;